x

Buoy F01 - West Penobscot Bay (44033) Wave Buoy

1:04 - Fri 27th May 2016 All times are EDT. -4 hours from GMT.

  • Sig Wave height 1.3ft
  • Peak Period 8s
  • Wind
    7mph, 11mph gusts
  • Sea Temp 52°f
  • Air Temp 53°f
  • Sea Pressure 1020.8mb
  • Buoy F01 - West Penobscot Bay
  • Buoy F01 - West Penobscot Bay

More Historic Weather Station data

Upgrade to MSW Pro to gain access to the past 30 days of data for over 8000 Wavebouys and Weather Stations around the globe.

Join Pro

Comparision Forecast

View Surf forecast
   
ven. 05/27 1:04 1.3ft 8s 7 11 mph 1020.8mb 52f 53f
12:04 1.3ft 6s 13 16 mph 1021.3mb 53f 55f
jeu. 05/26 11:04 1.3ft 6s 9 11 mph 1021mb 54f 54f
10:04 1.3ft 8s 4
mph
1020.1mb 54f 54f
9:04 1.3ft 5s 4
mph
1019.4mb 54f 54f
8:04 1.3ft 6s 7
mph
1018.7mb 54f 54f
7:04 1.3ft 6s 2 4 mph 1018.3mb 52f 55f
6:04 1.3ft 6s 7 9 mph 1017.6mb 53f 56f
5:04 1.6ft 6s 9 11 mph 1017.3mb 51f 56f
4:04 1.6ft 8s 9 11 mph 1017.3mb 51f 55f
3:04 1.3ft 6s 11
mph
1017mb 52f 56f
2:04 1.6ft 8s 9
mph
1016.7mb 53f 56f
1:04 1.6ft 8s 7 11 mph 1016.9mb 52f 59f
12:04 1.6ft 8s 7
mph
1017mb 52f 56f
11:04 1.6ft 8s 4 7 mph 1017mb 52f 59f
10:04 1.6ft 8s 7 9 mph 1017.2mb 52f 58f
9:04 2ft 8s 2
mph
1017.4mb 52f 58f
8:04 1.6ft 8s 7 9 mph 1016.8mb 52f 57f
7:04 1.6ft 8s 9 11 mph 1016.8mb 52f 60f
6:04 1.6ft 6s 2 7 mph 1015.9mb 50f 60f
5:04 1.6ft 6s 7
mph
1015mb 51f 57f
4:04 1.6ft 6s 9 16 mph 1014.3mb 51f 60f
3:04 2ft 6s 2
mph
1013.5mb 51f 56f
2:04 2ft 8s 2
mph
1013mb 51f 55f
1:04 1.6ft 8s 2 4 mph 1012.7mb 51f 56f
12:04 2.5ft 8s 9 11 mph 1012.5mb 51f 54f
mer. 05/25 11:04 2ft 8s 2 7 mph 1012.6mb 51f 52f
10:04 2ft 8s 7 9 mph 1012.9mb 51f 51f
9:04 2ft 8s 7
mph
1013mb 51f 51f
8:04 2ft 8s 11 13 mph 1012.6mb 51f 51f
7:04 2ft 8s 13 16 mph 1013mb 51f 51f
6:04 2ft 8s 11 16 mph 1012.7mb 52f 50f
5:04 2ft 8s 16 18 mph 1012.6mb 53f 50f
4:04 1.6ft 8s 13 16 mph 1012.6mb 53f 50f
3:04 2.5ft 8s 16 18 mph 1012.7mb 53f 50f
2:04 2.5ft 8s 13 16 mph 1012.7mb 53f 50f
1:04 2.5ft 8s 18 20 mph 1013.2mb 53f 51f
12:04 2ft 8s 18 20 mph 1013.7mb 54f 51f
11:04 2ft 8s 11 13 mph 1013.7mb 54f 52f
10:04 2ft 8s 7 9 mph 1014.1mb 53f 52f
9:04 1.6ft 8s 7
mph
1014mb 52f 52f
8:04 1.6ft 8s 4
mph
1014.2mb 52f 51f
7:04 1.6ft 8s 4 7 mph 1014.1mb 50f 52f
6:04 1.6ft 8s 4
mph
1013.8mb 50f 51f
5:04 1.6ft 8s 2
mph
1013.4mb 50f 51f
4:04 1.3ft 8s 2
mph
1012.8mb 49f 50f
3:04 1.3ft 8s 2 4 mph 1012.8mb 50f 50f
2:04 1.6ft 6s 4
mph
1012.9mb 49f 49f
1:04 2ft 8s 4 7 mph 1013.4mb 49f 49f
12:04 1.6ft 8s 2 4 mph 1013.5mb 48f 50f
mar. 05/24 11:04 2ft 8s 4 7 mph 1013.7mb 49f 49f
10:04 2ft 8s 4 7 mph 1013.6mb 51f 50f
9:04 2ft 8s 4 7 mph 1013.8mb 51f 51f
8:04 2.5ft 8s 4
mph
1014.1mb 51f 51f
7:04 2ft 8s  -  2 mph 1013.8mb 52f 52f
6:04 1.6ft 8s 4 7 mph 1013.7mb 51f 51f
5:04 2ft 8s 4 7 mph 1013.6mb 51f 51f
4:04 2ft 8s 2
mph
1013.9mb 51f 52f
3:04 2ft 11s 7 9 mph 1013.8mb 49f 51f
2:04 2ft 11s 4 7 mph 1014mb 49f 51f
1:04 2.5ft 11s 4
mph
1014.2mb 49f 50f
12:04 1.6ft 8s 7
mph
1014.2mb 49f 50f
11:04 2ft 8s 9 11 mph 1014.3mb 49f 50f
10:04 2ft 11s 11 13 mph 1014.1mb 50f 52f
9:04 2.5ft 8s 9
mph
1014.2mb 50f 52f
8:04 2.5ft 8s 9 11 mph 1014.1mb 50f 51f
5:04 2.5ft 11s 7
mph
1013.7mb 53f 52f
4:04 2.5ft 11s 9 11 mph 1013.8mb 53f 53f
3:04 2ft 11s 9 11 mph 1013.2mb 52f 54f
2:04 2ft 11s 9 11 mph 1012.7mb 53f 54f
1:04 2.5ft 8s 7
mph
1013.4mb 52f 54f
12:04 2.5ft 11s 7 9 mph 1013.2mb 51f 53f
lun. 05/23 11:04 2.5ft 8s 4 7 mph 1013.3mb 52f 53f
10:04 2.5ft 8s 2 4 mph 1013mb 53f 54f
9:04 3ft 11s 2
mph
1012.5mb 54f 54f
8:04 3ft 8s 2
mph
1012mb 53f 55f
7:04 3ft 11s 7
mph
1012.7mb 53f 55f
6:04 3ft 11s 9 11 mph 1012mb 53f 55f
5:04 3ft 11s 7 9 mph 1011.2mb 52f 53f
4:04  -   -  16 18 mph 1010.4mb 52f 54f
3:04 2.5ft 11s 9 11 mph 1009.6mb 49f 60f
2:04 2.5ft 11s 7
mph
1009.6mb 50f 62f
1:04  -   -  7 9 mph 1010.4mb 49f 59f
12:04 2.5ft 11s 7
mph
1010.2mb 48f 55f
11:04  -   -  4 7 mph 1010.7mb 49f 54f
10:04 2.5ft 11s 13 16 mph 1010.9mb 49f 55f
8:04 2.5ft 11s 11 13 mph 1010.8mb 49f 56f
7:04 2.5ft 11s 9
mph
1011.3mb 49f 55f